createdAt,value
2023-04-20T00:00:22.775Z,101316.47
2023-04-20T00:02:49.499Z,101325.25
2023-04-20T00:05:16.449Z,101319.69
2023-04-20T00:07:43.061Z,101321.00
2023-04-20T00:10:10.080Z,101311.63
2023-04-20T00:12:36.574Z,101316.16
2023-04-20T00:15:03.292Z,101317.31
2023-04-20T00:17:29.891Z,101319.72
2023-04-20T00:19:56.591Z,101331.75
2023-04-20T00:22:23.034Z,101330.13
2023-04-20T00:24:49.465Z,101328.34
2023-04-20T00:27:15.965Z,101324.91
2023-04-20T00:29:43.404Z,101312.94
2023-04-20T00:32:09.879Z,101304.78
2023-04-20T00:34:36.420Z,101309.19
2023-04-20T00:37:02.838Z,101310.97
2023-04-20T00:39:29.333Z,101320.38
2023-04-20T00:42:04.276Z,101314.38
2023-04-20T00:44:30.859Z,101309.19
2023-04-20T00:46:57.384Z,101313.38
2023-04-20T00:49:28.524Z,101305.25
2023-04-20T00:51:54.986Z,101300.22
2023-04-20T00:54:21.900Z,101311.78
2023-04-20T00:56:48.737Z,101303.53
2023-04-20T00:59:15.273Z,101304.31
2023-04-20T01:01:42.794Z,101299.28
2023-04-20T01:04:09.750Z,101305.13
2023-04-20T01:06:36.335Z,101311.25
2023-04-20T01:09:02.926Z,101301.03
2023-04-20T01:11:29.374Z,101299.25
2023-04-20T01:13:55.963Z,101299.41
2023-04-20T01:16:23.179Z,101308.38
2023-04-20T01:18:51.169Z,101305.94
2023-04-20T01:21:19.699Z,101303.34
2023-04-20T01:23:46.345Z,101306.13
2023-04-20T01:26:15.545Z,101307.72
2023-04-20T01:28:42.411Z,101309.34
2023-04-20T01:31:10.145Z,101299.94
2023-04-20T01:33:36.813Z,101299.94
2023-04-20T01:36:04.652Z,101300.41
2023-04-20T01:38:33.011Z,101283.22
2023-04-20T01:40:59.531Z,101294.22
2023-04-20T01:43:26.207Z,101285.63
2023-04-20T01:45:52.660Z,101288.56
2023-04-20T01:48:19.143Z,101284.53
2023-04-20T01:50:45.580Z,101296.06
2023-04-20T01:53:13.704Z,101288.59
2023-04-20T01:55:40.281Z,101304.19
2023-04-20T01:58:06.723Z,101300.63
2023-04-20T02:00:33.225Z,101305.13
2023-04-20T02:02:59.978Z,101301.09
2023-04-20T02:05:26.663Z,101302.53
2023-04-20T02:07:53.104Z,101309.34
2023-04-20T02:10:19.640Z,101303.34
2023-04-20T02:12:46.301Z,101296.34
2023-04-20T02:15:12.794Z,101303.34
2023-04-20T02:17:41.077Z,101304.31
2023-04-20T02:20:09.404Z,101304.31
2023-04-20T02:22:36.803Z,101301.72
2023-04-20T02:25:05.478Z,101306.13
2023-04-20T02:27:33.093Z,101307.09
2023-04-20T02:30:00.451Z,101304.50
2023-04-20T02:32:27.359Z,101301.25
2023-04-20T02:34:53.826Z,101299.16
2023-04-20T02:37:20.572Z,101298.72
2023-04-20T02:39:47.112Z,101297.28
2023-04-20T02:42:13.634Z,101298.22
2023-04-20T02:44:40.074Z,101296.63
2023-04-20T02:47:06.508Z,101295.50
2023-04-20T02:49:33.012Z,101300.88
2023-04-20T02:51:59.413Z,101303.47
2023-04-20T02:54:25.925Z,101305.25
2023-04-20T02:56:52.374Z,101300.72
2023-04-20T02:59:19.128Z,101294.41
2023-04-20T03:01:46.219Z,101290.19
2023-04-20T03:04:13.186Z,101297.50
2023-04-20T03:06:40.565Z,101293.94
2023-04-20T03:09:07.751Z,101298.16
2023-04-20T03:11:34.308Z,101300.59
2023-04-20T03:14:00.753Z,101303.53
2023-04-20T03:16:27.278Z,101299.47
2023-04-20T03:18:53.689Z,101300.13
2023-04-20T03:21:20.611Z,101298.34
2023-04-20T03:23:47.024Z,101300.28
2023-04-20T03:26:13.564Z,101307.91
2023-04-20T03:28:40.023Z,101313.56
2023-04-20T03:31:06.653Z,101322.97
2023-04-20T03:33:33.196Z,101327.81
2023-04-20T03:35:59.617Z,101321.19
2023-04-20T03:38:26.231Z,101307.38
2023-04-20T03:40:52.696Z,101323.59
2023-04-20T03:43:19.170Z,101321.81
2023-04-20T03:45:45.690Z,101318.59
2023-04-20T03:48:12.182Z,101317.13
2023-04-20T03:50:38.725Z,101317.28
2023-04-20T03:53:05.170Z,101322.19
2023-04-20T03:55:31.737Z,101313.28
2023-04-20T03:57:58.147Z,101312.81
2023-04-20T04:00:24.727Z,101302.59
2023-04-20T04:02:51.337Z,101307.94
2023-04-20T04:05:18.125Z,101308.59
2023-04-20T04:07:44.637Z,101315.56
2023-04-20T04:10:11.197Z,101313.31
2023-04-20T04:12:37.622Z,101302.47
2023-04-20T04:15:05.045Z,101310.06
2023-04-20T04:17:31.607Z,101316.56
2023-04-20T04:19:58.054Z,101310.84
2023-04-20T04:22:24.493Z,101308.38
2023-04-20T04:24:51.611Z,101309.97
2023-04-20T04:27:18.514Z,101311.56
2023-04-20T04:29:45.034Z,101317.00
2023-04-20T04:32:12.388Z,101317.44
2023-04-20T04:34:39.011Z,101329.19
2023-04-20T04:37:05.480Z,101325.53
2023-04-20T04:39:31.894Z,101317.53
2023-04-20T04:41:58.342Z,101321.31
2023-04-20T04:44:26.068Z,101322.53
2023-04-20T04:46:52.539Z,101314.44
2023-04-20T04:49:20.479Z,101320.50
2023-04-20T04:51:48.000Z,101316.41
2023-04-20T04:54:14.445Z,101312.09
2023-04-20T04:56:40.938Z,101306.94
2023-04-20T04:59:07.386Z,101315.63
2023-04-20T05:01:33.794Z,101323.34
2023-04-20T05:04:00.988Z,101319.47
2023-04-20T05:06:27.735Z,101324.69
2023-04-20T05:08:54.165Z,101328.94
2023-04-20T05:11:20.615Z,101331.34
2023-04-20T05:13:48.457Z,101331.69
2023-04-20T05:16:14.938Z,101325.41
2023-04-20T05:18:41.674Z,101320.94
2023-04-20T05:21:08.160Z,101326.41
2023-04-20T05:23:34.690Z,101325.69
2023-04-20T05:26:01.264Z,101318.97
2023-04-20T05:28:27.724Z,101326.59
2023-04-20T05:30:55.307Z,101318.50
2023-04-20T05:33:22.476Z,101313.75
2023-04-20T05:35:49.067Z,101320.03
2023-04-20T05:38:15.595Z,101311.72
2023-04-20T05:40:42.122Z,101312.69
2023-04-20T05:43:08.714Z,101329.56
2023-04-20T05:45:35.368Z,101316.84
2023-04-20T05:48:02.021Z,101324.94
2023-04-20T05:50:28.594Z,101324.78
2023-04-20T05:52:55.400Z,101331.19
2023-04-20T05:55:23.024Z,101324.78
2023-04-20T05:57:52.139Z,101326.53
2023-04-20T06:00:19.397Z,101326.03
2023-04-20T06:02:46.181Z,101321.41
2023-04-20T06:05:13.046Z,101323.88
2023-04-20T06:07:40.383Z,101330.44
2023-04-20T06:10:08.282Z,101332.84
2023-04-20T06:12:35.182Z,101335.41
2023-04-20T06:15:01.939Z,101326.63
2023-04-20T06:17:28.473Z,101329.84
2023-04-20T06:19:55.256Z,101327.53
2023-04-20T06:22:21.980Z,101325.44
2023-04-20T06:24:48.457Z,101328.16
2023-04-20T06:27:15.002Z,101332.88
2023-04-20T06:29:41.894Z,101329.53
2023-04-20T06:32:08.420Z,101332.47
2023-04-20T06:34:34.899Z,101332.22
2023-04-20T06:37:01.525Z,101329.19
2023-04-20T06:39:28.034Z,101342.31
2023-04-20T06:41:54.545Z,101329.06
2023-04-20T06:44:21.075Z,101335.25
2023-04-20T06:46:47.648Z,101337.69
2023-04-20T06:49:14.257Z,101336.22
2023-04-20T06:51:40.850Z,101334.44
2023-04-20T06:54:07.364Z,101331.59
2023-04-20T06:56:35.632Z,101339.44
2023-04-20T06:59:02.420Z,101332.88
2023-04-20T07:01:28.991Z,101336.41
2023-04-20T07:03:55.662Z,101325.44
2023-04-20T07:06:22.222Z,101330.25
2023-04-20T07:08:48.769Z,101336.75
2023-04-20T07:11:15.347Z,101340.22
2023-04-20T07:13:41.928Z,101339.00
2023-04-20T07:16:10.170Z,101342.97
2023-04-20T07:18:36.830Z,101341.63
2023-04-20T07:21:03.462Z,101348.59
2023-04-20T07:23:29.941Z,101354.22
2023-04-20T07:25:56.412Z,101344.41
2023-04-20T07:28:22.914Z,101354.19
2023-04-20T07:30:49.328Z,101357.38
2023-04-20T07:33:15.823Z,101362.41
2023-04-20T07:35:42.437Z,101365.97
2023-04-20T07:38:08.933Z,101373.06
2023-04-20T07:40:35.481Z,101361.97
2023-04-20T07:43:02.047Z,101366.84
2023-04-20T07:45:28.517Z,101363.94
2023-04-20T07:47:55.643Z,101368.06
2023-04-20T07:50:22.316Z,101373.09
2023-04-20T07:52:48.908Z,101377.53
2023-04-20T07:55:17.251Z,101369.06
2023-04-20T07:57:43.896Z,101379.28
2023-04-20T08:00:12.671Z,101374.97
2023-04-20T08:02:39.335Z,101374.44
2023-04-20T08:05:06.493Z,101374.31
2023-04-20T08:07:33.398Z,101375.84
2023-04-20T08:10:01.362Z,101373.56
2023-04-20T08:12:27.907Z,101369.16
2023-04-20T08:14:54.458Z,101364.53
2023-04-20T08:17:21.139Z,101370.47
2023-04-20T08:19:47.639Z,101371.72
2023-04-20T08:22:14.219Z,101370.44
2023-04-20T08:24:40.708Z,101381.25
2023-04-20T08:27:08.939Z,101377.13
2023-04-20T08:29:35.792Z,101367.75
2023-04-20T08:32:03.614Z,101371.66
2023-04-20T08:34:30.174Z,101378.88
2023-04-20T08:36:56.632Z,101374.22
2023-04-20T08:39:24.294Z,101380.44
2023-04-20T08:41:55.415Z,101381.94
2023-04-20T08:44:22.243Z,101379.47
2023-04-20T08:46:49.248Z,101380.66
2023-04-20T08:49:17.109Z,101376.84
2023-04-20T08:51:45.137Z,101379.63
2023-04-20T08:54:12.772Z,101370.03
2023-04-20T08:56:41.697Z,101376.84
2023-04-20T08:59:13.997Z,101376.13
2023-04-20T09:01:41.927Z,101374.53
2023-04-20T09:04:19.461Z,101378.59
2023-04-20T09:06:50.295Z,101375.13
2023-04-20T09:09:17.289Z,101380.66
2023-04-20T09:11:44.716Z,101388.06
2023-04-20T09:14:13.687Z,101383.34
2023-04-20T09:17:01.934Z,101383.59
2023-04-20T09:19:30.444Z,101380.03
2023-04-20T09:22:05.257Z,101369.53
2023-04-20T09:24:35.198Z,101381.94
2023-04-20T09:27:14.197Z,101375.16
2023-04-20T09:29:40.768Z,101383.28
2023-04-20T09:32:07.360Z,101379.53
2023-04-20T09:34:45.953Z,101380.91
2023-04-20T09:37:15.261Z,101374.97
2023-04-20T09:39:43.983Z,101371.41
2023-04-20T09:42:13.120Z,101381.47
2023-04-20T09:44:40.376Z,101386.97
2023-04-20T09:47:08.558Z,101379.03
2023-04-20T09:49:35.770Z,101376.88
2023-04-20T09:52:03.886Z,101383.19
2023-04-20T09:54:31.553Z,101375.59
2023-04-20T09:57:01.739Z,101373.28
2023-04-20T09:59:28.680Z,101378.75
2023-04-20T10:01:55.481Z,101372.50
2023-04-20T10:04:22.224Z,101376.38
2023-04-20T10:06:54.911Z,101385.66
2023-04-20T10:09:23.391Z,101378.94
2023-04-20T10:11:53.932Z,101372.13
2023-04-20T10:14:26.100Z,101370.63
2023-04-20T10:17:07.535Z,101375.84
2023-04-20T10:19:41.995Z,101377.31
2023-04-20T10:22:11.594Z,101369.78
2023-04-20T10:24:38.950Z,101374.59
2023-04-20T10:27:25.909Z,101373.66
2023-04-20T10:29:52.469Z,101367.00
2023-04-20T10:32:26.364Z,101372.03
2023-04-20T10:35:07.782Z,101371.72
2023-04-20T10:37:35.203Z,101370.44
2023-04-20T10:40:06.863Z,101368.81
2023-04-20T10:42:46.609Z,101368.03
2023-04-20T10:45:13.426Z,101367.88
2023-04-20T10:47:45.435Z,101362.09
2023-04-20T10:50:14.184Z,101361.34
2023-04-20T10:52:43.448Z,101354.75
2023-04-20T10:55:24.959Z,101348.72
2023-04-20T10:57:52.119Z,101344.59
2023-04-20T11:00:21.762Z,101349.31
2023-04-20T11:02:52.756Z,101342.19
2023-04-20T11:05:21.314Z,101337.19
2023-04-20T11:07:57.493Z,101344.66
2023-04-20T11:10:41.569Z,101344.66
2023-04-20T11:13:19.716Z,101333.94
2023-04-20T11:15:46.338Z,101352.09
2023-04-20T11:18:13.075Z,101349.41
2023-04-20T11:20:53.142Z,101351.06
2023-04-20T11:23:21.267Z,101343.00
2023-04-20T11:25:56.138Z,101335.28
2023-04-20T11:28:23.558Z,101346.81
2023-04-20T11:30:51.231Z,101337.84
2023-04-20T11:33:29.221Z,101340.47
2023-04-20T11:35:57.556Z,101344.31
2023-04-20T11:38:42.035Z,101339.91
2023-04-20T11:41:08.553Z,101340.53
2023-04-20T11:43:36.073Z,101336.81
2023-04-20T11:46:03.330Z,101341.59
2023-04-20T11:48:31.542Z,101330.84
2023-04-20T11:50:58.536Z,101334.19
2023-04-20T11:53:25.415Z,101328.44
2023-04-20T11:55:52.011Z,101337.44
2023-04-20T11:58:18.507Z,101339.50
2023-04-20T12:00:45.400Z,101334.03
2023-04-20T12:03:12.114Z,101337.53
2023-04-20T12:05:39.116Z,101340.56
2023-04-20T12:08:08.242Z,101333.22
2023-04-20T12:10:35.046Z,101333.16
2023-04-20T12:13:01.695Z,101330.06
2023-04-20T12:15:28.392Z,101324.72
2023-04-20T12:17:55.001Z,101326.88
2023-04-20T12:20:21.538Z,101331.47
2023-04-20T12:22:48.308Z,101332.41
2023-04-20T12:25:14.804Z,101328.50
2023-04-20T12:27:41.368Z,101330.31
2023-04-20T12:30:09.358Z,101326.53
2023-04-20T12:32:35.779Z,101326.25
2023-04-20T12:35:02.718Z,101329.75
2023-04-20T12:37:29.276Z,101308.34
2023-04-20T12:39:55.807Z,101325.56
2023-04-20T12:42:22.269Z,101312.09
2023-04-20T12:44:48.777Z,101309.66
2023-04-20T12:47:15.238Z,101302.22
2023-04-20T12:49:41.765Z,101307.75
2023-04-20T12:52:08.857Z,101302.38
2023-04-20T12:54:35.622Z,101301.31
2023-04-20T12:57:02.542Z,101300.91
2023-04-20T12:59:29.279Z,101299.66
2023-04-20T13:01:55.781Z,101298.72
2023-04-20T13:04:22.977Z,101297.66
2023-04-20T13:06:50.130Z,101292.50
2023-04-20T13:09:16.735Z,101283.16
2023-04-20T13:11:43.273Z,101287.34
2023-04-20T13:14:09.767Z,101294.84
2023-04-20T13:16:36.272Z,101284.78
2023-04-20T13:19:03.328Z,101290.50
2023-04-20T13:21:29.828Z,101286.63
2023-04-20T13:23:57.064Z,101288.69
2023-04-20T13:26:23.612Z,101286.88
2023-04-20T13:28:50.181Z,101286.44
2023-04-20T13:31:16.978Z,101294.03
2023-04-20T13:33:43.501Z,101285.72
2023-04-20T13:36:10.160Z,101297.78
2023-04-20T13:38:36.854Z,101283.84
2023-04-20T13:41:03.351Z,101293.84
2023-04-20T13:43:29.898Z,101291.28
2023-04-20T13:45:57.576Z,101278.38
2023-04-20T13:48:24.122Z,101276.66
2023-04-20T13:50:51.262Z,101275.53
2023-04-20T13:53:17.823Z,101271.59
2023-04-20T13:55:44.418Z,101280.03
2023-04-20T13:58:10.978Z,101275.56
2023-04-20T14:00:37.456Z,101273.31
2023-04-20T14:03:05.613Z,101270.84
2023-04-20T14:05:32.298Z,101269.97
2023-04-20T14:08:01.452Z,101274.91
2023-04-20T14:10:28.376Z,101276.06
2023-04-20T14:12:54.901Z,101269.25
2023-04-20T14:15:21.469Z,101263.22
2023-04-20T14:17:51.732Z,101269.31
2023-04-20T14:20:19.118Z,101254.22
2023-04-20T14:22:45.715Z,101258.88
2023-04-20T14:25:12.262Z,101254.78
2023-04-20T14:27:38.813Z,101263.34
2023-04-20T14:30:06.267Z,101252.16
2023-04-20T14:32:34.818Z,101255.53
2023-04-20T14:35:03.224Z,101250.63
2023-04-20T14:37:31.249Z,101246.84
2023-04-20T14:39:57.736Z,101254.59
2023-04-20T14:42:24.241Z,101246.44
2023-04-20T14:44:50.827Z,101237.22
2023-04-20T14:47:17.817Z,101243.53
2023-04-20T14:49:44.567Z,101239.06
2023-04-20T14:52:11.045Z,101271.72
2023-04-20T14:54:37.565Z,101252.06
2023-04-20T14:57:04.121Z,101270.19
2023-04-20T14:59:32.424Z,101265.41
2023-04-20T15:02:02.830Z,101274.56
2023-04-20T15:04:30.415Z,101267.22
2023-04-20T15:06:57.357Z,101261.84
2023-04-20T15:09:23.811Z,101268.97
2023-04-20T15:11:50.448Z,101268.38
2023-04-20T15:14:17.208Z,101272.50
2023-04-20T15:16:43.928Z,101277.75
2023-04-20T15:19:10.435Z,101274.00
2023-04-20T15:21:36.940Z,101275.47
2023-04-20T15:24:03.628Z,101265.03
2023-04-20T15:26:30.376Z,101264.50
2023-04-20T15:28:58.589Z,101269.19
2023-04-20T15:31:25.088Z,101261.72
2023-04-20T15:33:51.741Z,101258.91
2023-04-20T15:36:19.818Z,101252.91
2023-04-20T15:38:46.613Z,101256.88
2023-04-20T15:41:13.191Z,101262.38
2023-04-20T15:43:39.681Z,101250.72
2023-04-20T15:46:06.338Z,101253.09
2023-04-20T15:48:32.905Z,101247.72
2023-04-20T15:50:59.345Z,101246.22
2023-04-20T15:53:26.727Z,101254.78
2023-04-20T15:55:53.550Z,101248.06
2023-04-20T15:58:20.070Z,101255.03
2023-04-20T16:00:46.668Z,101249.06
2023-04-20T16:03:13.284Z,101250.59
2023-04-20T16:05:40.040Z,101249.50
2023-04-20T16:08:06.673Z,101251.88
2023-04-20T16:10:33.582Z,101253.31
2023-04-20T16:13:00.123Z,101252.09
2023-04-20T16:15:26.878Z,101262.75
2023-04-20T16:17:54.276Z,101258.94
2023-04-20T16:20:22.294Z,101286.50
2023-04-20T16:22:48.919Z,101274.63
2023-04-20T16:25:22.632Z,101280.13
2023-04-20T16:27:51.526Z,101287.53
2023-04-20T16:30:18.628Z,101291.94
2023-04-20T16:32:47.807Z,101294.84
2023-04-20T16:35:14.444Z,101294.69
2023-04-20T16:37:40.976Z,101298.25
2023-04-20T16:40:09.734Z,101296.34
2023-04-20T16:42:36.396Z,101291.25
2023-04-20T16:45:04.130Z,101287.59
2023-04-20T16:47:31.215Z,101290.94
2023-04-20T16:49:57.961Z,101288.63
2023-04-20T16:52:24.635Z,101283.59
2023-04-20T16:54:51.606Z,101285.88
2023-04-20T16:57:18.186Z,101281.06
2023-04-20T16:59:45.919Z,101279.50
2023-04-20T17:02:12.869Z,101284.31
2023-04-20T17:04:39.506Z,101283.84
2023-04-20T17:07:06.253Z,101284.88
2023-04-20T17:09:33.100Z,101294.13
2023-04-20T17:11:59.618Z,101281.63
2023-04-20T17:14:26.141Z,101288.47
2023-04-20T17:16:54.192Z,101288.44
2023-04-20T17:19:20.885Z,101285.44
2023-04-20T17:21:47.674Z,101282.19
2023-04-20T17:24:14.205Z,101286.72
2023-04-20T17:26:40.989Z,101287.16
2023-04-20T17:29:07.565Z,101291.19
2023-04-20T17:31:34.341Z,101291.13
2023-04-20T17:34:00.923Z,101289.66
2023-04-20T17:36:28.210Z,101285.47
2023-04-20T17:38:54.775Z,101287.59
2023-04-20T17:41:21.210Z,101291.09
2023-04-20T17:43:53.689Z,101294.00
2023-04-20T17:46:20.138Z,101291.66
2023-04-20T17:48:46.763Z,101300.63
2023-04-20T17:51:14.509Z,101297.69
2023-04-20T17:53:41.161Z,101293.94
2023-04-20T17:56:07.717Z,101301.28
2023-04-20T17:58:34.335Z,101298.13
2023-04-20T18:01:00.990Z,101304.06
2023-04-20T18:03:28.142Z,101290.19
2023-04-20T18:05:54.905Z,101300.13
2023-04-20T18:08:23.185Z,101298.34
2023-04-20T18:10:49.842Z,101304.25
2023-04-20T18:13:16.600Z,101301.63
2023-04-20T18:15:43.174Z,101298.47
2023-04-20T18:18:09.672Z,101306.97
2023-04-20T18:20:36.207Z,101310.41
2023-04-20T18:23:02.819Z,101313.50
2023-04-20T18:25:29.368Z,101306.03
2023-04-20T18:27:55.933Z,101309.47
2023-04-20T18:30:22.598Z,101317.53
2023-04-20T18:32:50.117Z,101317.53
2023-04-20T18:35:17.084Z,101314.31
2023-04-20T18:37:44.916Z,101319.38
2023-04-20T18:40:12.599Z,101319.81
2023-04-20T18:42:40.868Z,101325.84
2023-04-20T18:45:08.436Z,101309.94
2023-04-20T18:47:35.023Z,101318.06
2023-04-20T18:50:01.864Z,101314.22
2023-04-20T18:52:33.041Z,101314.66
2023-04-20T18:55:02.894Z,101313.66
2023-04-20T18:57:29.499Z,101314.69
2023-04-20T18:59:56.593Z,101320.97
2023-04-20T19:02:23.512Z,101317.53
2023-04-20T19:04:50.976Z,101318.16
2023-04-20T19:07:18.119Z,101321.78
2023-04-20T19:09:48.189Z,101321.00
2023-04-20T19:12:14.970Z,101314.50
2023-04-20T19:14:41.598Z,101314.91
2023-04-20T19:17:08.632Z,101321.38
2023-04-20T19:19:35.473Z,101323.38
2023-04-20T19:22:03.613Z,101322.38
2023-04-20T19:24:32.059Z,101321.75
2023-04-20T19:26:59.141Z,101325.00
2023-04-20T19:29:25.726Z,101326.59
2023-04-20T19:31:52.602Z,101318.53
2023-04-20T19:34:19.417Z,101315.72
2023-04-20T19:36:46.620Z,101322.38
2023-04-20T19:39:13.170Z,101317.94
2023-04-20T19:41:40.076Z,101322.97
2023-04-20T19:44:06.874Z,101321.78
2023-04-20T19:46:33.883Z,101322.34
2023-04-20T19:49:00.960Z,101321.16
2023-04-20T19:51:27.676Z,101312.91
2023-04-20T19:53:54.706Z,101317.31
2023-04-20T19:56:21.309Z,101320.13
2023-04-20T19:58:47.878Z,101320.13
2023-04-20T20:01:14.480Z,101316.91
2023-04-20T20:03:45.727Z,101321.53
2023-04-20T20:06:12.434Z,101318.09
2023-04-20T20:08:38.917Z,101322.91
2023-04-20T20:11:07.988Z,101322.69
2023-04-20T20:13:34.460Z,101332.53
2023-04-20T20:16:00.946Z,101330.34
2023-04-20T20:18:27.559Z,101321.69
2023-04-20T20:20:54.018Z,101328.31
2023-04-20T20:23:20.589Z,101322.06
2023-04-20T20:25:47.246Z,101317.44
2023-04-20T20:28:14.261Z,101326.31
2023-04-20T20:30:45.001Z,101324.88
2023-04-20T20:33:12.289Z,101319.44
2023-04-20T20:35:39.764Z,101323.22
2023-04-20T20:38:07.652Z,101319.41
2023-04-20T20:40:35.335Z,101316.59
2023-04-20T20:43:02.086Z,101324.78
2023-04-20T20:45:28.978Z,101329.59
2023-04-20T20:47:56.043Z,101325.19
2023-04-20T20:50:23.125Z,101323.78
2023-04-20T20:52:49.894Z,101326.59
2023-04-20T20:55:16.379Z,101325.19
2023-04-20T20:57:44.288Z,101326.59
2023-04-20T21:00:11.368Z,101326.78
2023-04-20T21:02:38.527Z,101328.59
2023-04-20T21:05:06.279Z,101329.38
2023-04-20T21:07:32.957Z,101328.22
2023-04-20T21:09:59.548Z,101328.81
2023-04-20T21:12:26.220Z,101326.81
2023-04-20T21:14:53.251Z,101324.22
2023-04-20T21:17:20.150Z,101317.78
2023-04-20T21:19:46.665Z,101318.41
2023-04-20T21:22:13.320Z,101322.44
2023-04-20T21:24:39.818Z,101316.19
2023-04-20T21:27:06.279Z,101325.63
2023-04-20T21:29:35.169Z,101325.22
2023-04-20T21:32:01.751Z,101322.41
2023-04-20T21:34:28.330Z,101327.41
2023-04-20T21:36:54.869Z,101327.59
2023-04-20T21:39:21.434Z,101322.97
2023-04-20T21:41:48.033Z,101324.97
2023-04-20T21:44:14.610Z,101326.00
2023-04-20T21:46:41.432Z,101327.38
2023-04-20T21:49:08.123Z,101320.16
2023-04-20T21:51:34.620Z,101332.63
2023-04-20T21:54:01.195Z,101332.06
2023-04-20T21:56:27.641Z,101327.41
2023-04-20T21:58:54.147Z,101336.47
2023-04-20T22:01:20.923Z,101336.69
2023-04-20T22:03:47.635Z,101328.63
2023-04-20T22:06:14.394Z,101324.22
2023-04-20T22:08:41.194Z,101333.03
2023-04-20T22:11:07.934Z,101328.41
2023-04-20T22:13:35.677Z,101334.44
2023-04-20T22:16:02.295Z,101326.97
2023-04-20T22:18:28.852Z,101328.81
2023-04-20T22:20:55.470Z,101337.81
2023-04-20T22:23:22.611Z,101326.13
2023-04-20T22:25:49.337Z,101330.94
2023-04-20T22:28:16.065Z,101333.13
2023-04-20T22:30:42.886Z,101336.34
2023-04-20T22:33:09.550Z,101336.72
2023-04-20T22:35:36.291Z,101334.28
2023-04-20T22:38:02.850Z,101334.41
2023-04-20T22:40:29.427Z,101333.00
2023-04-20T22:42:55.967Z,101337.00
2023-04-20T22:45:22.503Z,101336.38
2023-04-20T22:47:49.165Z,101329.47
2023-04-20T22:50:16.245Z,101330.84
2023-04-20T22:52:42.909Z,101334.84
2023-04-20T22:55:10.862Z,101333.19
2023-04-20T22:57:38.900Z,101341.75
2023-04-20T23:00:10.796Z,101341.91
2023-04-20T23:02:37.997Z,101340.66
2023-04-20T23:05:05.798Z,101336.22
2023-04-20T23:07:33.115Z,101336.94
2023-04-20T23:10:00.178Z,101341.72
2023-04-20T23:12:26.949Z,101332.50
2023-04-20T23:14:54.827Z,101329.66
2023-04-20T23:17:21.489Z,101330.38
2023-04-20T23:19:48.023Z,101332.34
2023-04-20T23:22:14.545Z,101334.53
2023-04-20T23:24:41.047Z,101339.34
2023-04-20T23:27:07.517Z,101335.47
2023-04-20T23:29:34.055Z,101340.25
2023-04-20T23:32:01.434Z,101333.00
2023-04-20T23:34:27.990Z,101334.56
2023-04-20T23:36:54.493Z,101333.53
2023-04-20T23:39:21.367Z,101336.91
2023-04-20T23:41:48.071Z,101332.59
2023-04-20T23:44:14.582Z,101335.16
2023-04-20T23:46:41.145Z,101333.09
2023-04-20T23:49:07.902Z,101340.28
2023-04-20T23:51:34.366Z,101332.81
2023-04-20T23:54:00.929Z,101327.53
2023-04-20T23:56:27.448Z,101332.31
2023-04-20T23:58:53.933Z,101328.47
